sensor_id;sensor_type;location;lat;lon;timestamp;P1;durP1;ratioP1;P2;durP2;ratioP2
27612;SDS011;15036;48.094;-1.690;2023-03-20T00:00:45;11.18;;;5.10;;
27612;SDS011;15036;48.094;-1.690;2023-03-20T00:03:12;9.90;;;5.22;;
27612;SDS011;15036;48.094;-1.690;2023-03-20T00:05:38;9.82;;;4.70;;
27612;SDS011;15036;48.094;-1.690;2023-03-20T00:08:04;10.77;;;4.53;;
27612;SDS011;15036;48.094;-1.690;2023-03-20T00:10:33;11.23;;;4.63;;
27612;SDS011;15036;48.094;-1.690;2023-03-20T00:13:01;10.38;;;4.55;;
27612;SDS011;15036;48.094;-1.690;2023-03-20T00:15:28;12.00;;;4.60;;
27612;SDS011;15036;48.094;-1.690;2023-03-20T00:17:59;9.80;;;4.68;;
27612;SDS011;15036;48.094;-1.690;2023-03-20T00:20:25;14.37;;;5.20;;
27612;SDS011;15036;48.094;-1.690;2023-03-20T00:22:51;12.80;;;5.40;;
27612;SDS011;15036;48.094;-1.690;2023-03-20T00:25:19;12.80;;;6.75;;
27612;SDS011;15036;48.094;-1.690;2023-03-20T00:27:46;11.70;;;5.65;;
27612;SDS011;15036;48.094;-1.690;2023-03-20T00:30:17;11.90;;;4.40;;
27612;SDS011;15036;48.094;-1.690;2023-03-20T00:32:47;14.23;;;4.70;;
27612;SDS011;15036;48.094;-1.690;2023-03-20T00:35:18;11.83;;;4.63;;
27612;SDS011;15036;48.094;-1.690;2023-03-20T00:37:45;11.07;;;4.70;;
27612;SDS011;15036;48.094;-1.690;2023-03-20T00:40:11;14.77;;;4.60;;
27612;SDS011;15036;48.094;-1.690;2023-03-20T00:42:37;11.50;;;4.47;;
27612;SDS011;15036;48.094;-1.690;2023-03-20T00:45:03;10.18;;;4.10;;
27612;SDS011;15036;48.094;-1.690;2023-03-20T00:47:36;10.07;;;4.18;;
27612;SDS011;15036;48.094;-1.690;2023-03-20T00:50:06;9.70;;;4.10;;
27612;SDS011;15036;48.094;-1.690;2023-03-20T00:52:39;11.55;;;4.45;;
27612;SDS011;15036;48.094;-1.690;2023-03-20T00:55:04;12.27;;;4.50;;
27612;SDS011;15036;48.094;-1.690;2023-03-20T00:57:33;11.25;;;4.20;;
27612;SDS011;15036;48.094;-1.690;2023-03-20T01:02:29;11.37;;;4.13;;
27612;SDS011;15036;48.094;-1.690;2023-03-20T01:04:55;12.73;;;4.70;;
27612;SDS011;15036;48.094;-1.690;2023-03-20T01:07:22;11.03;;;4.20;;
27612;SDS011;15036;48.094;-1.690;2023-03-20T01:09:47;8.20;;;3.80;;
27612;SDS011;15036;48.094;-1.690;2023-03-20T01:12:13;11.05;;;4.10;;
27612;SDS011;15036;48.094;-1.690;2023-03-20T01:14:39;9.77;;;4.00;;
27612;SDS011;15036;48.094;-1.690;2023-03-20T01:17:08;11.55;;;3.78;;
27612;SDS011;15036;48.094;-1.690;2023-03-20T01:19:41;10.45;;;3.90;;
27612;SDS011;15036;48.094;-1.690;2023-03-20T01:22:06;9.73;;;3.63;;
27612;SDS011;15036;48.094;-1.690;2023-03-20T01:24:31;10.77;;;4.00;;
27612;SDS011;15036;48.094;-1.690;2023-03-20T01:26:57;10.03;;;3.83;;
27612;SDS011;15036;48.094;-1.690;2023-03-20T01:29:23;11.32;;;3.75;;
27612;SDS011;15036;48.094;-1.690;2023-03-20T01:31:51;10.70;;;3.65;;
27612;SDS011;15036;48.094;-1.690;2023-03-20T01:34:18;12.85;;;3.63;;
27612;SDS011;15036;48.094;-1.690;2023-03-20T01:36:47;11.68;;;3.70;;
27612;SDS011;15036;48.094;-1.690;2023-03-20T01:39:14;10.82;;;3.72;;
27612;SDS011;15036;48.094;-1.690;2023-03-20T01:41:41;10.95;;;3.70;;
27612;SDS011;15036;48.094;-1.690;2023-03-20T01:46:51;9.27;;;3.50;;
27612;SDS011;15036;48.094;-1.690;2023-03-20T01:51:43;11.20;;;3.97;;
27612;SDS011;15036;48.094;-1.690;2023-03-20T01:54:16;10.00;;;3.37;;
27612;SDS011;15036;48.094;-1.690;2023-03-20T01:56:50;7.93;;;3.53;;
27612;SDS011;15036;48.094;-1.690;2023-03-20T01:59:25;9.48;;;3.40;;
27612;SDS011;15036;48.094;-1.690;2023-03-20T02:01:58;9.65;;;3.45;;
27612;SDS011;15036;48.094;-1.690;2023-03-20T02:04:28;10.88;;;3.67;;
27612;SDS011;15036;48.094;-1.690;2023-03-20T02:06:58;8.60;;;3.10;;
27612;SDS011;15036;48.094;-1.690;2023-03-20T02:09:24;9.93;;;3.53;;
27612;SDS011;15036;48.094;-1.690;2023-03-20T02:11:50;9.73;;;3.42;;
27612;SDS011;15036;48.094;-1.690;2023-03-20T02:14:16;9.57;;;3.50;;
27612;SDS011;15036;48.094;-1.690;2023-03-20T02:16:42;10.40;;;3.20;;
27612;SDS011;15036;48.094;-1.690;2023-03-20T02:19:10;8.80;;;3.10;;
27612;SDS011;15036;48.094;-1.690;2023-03-20T02:38:07;8.32;;;3.20;;
27612;SDS011;15036;48.094;-1.690;2023-03-20T02:45:57;7.90;;;3.00;;
27612;SDS011;15036;48.094;-1.690;2023-03-20T02:48:38;10.95;;;3.47;;
27612;SDS011;15036;48.094;-1.690;2023-03-20T02:51:21;9.02;;;3.33;;
27612;SDS011;15036;48.094;-1.690;2023-03-20T02:57:04;8.55;;;3.15;;
27612;SDS011;15036;48.094;-1.690;2023-03-20T03:00:07;9.80;;;3.20;;
27612;SDS011;15036;48.094;-1.690;2023-03-20T03:02:38;9.63;;;3.13;;
27612;SDS011;15036;48.094;-1.690;2023-03-20T03:05:12;8.93;;;3.20;;
27612;SDS011;15036;48.094;-1.690;2023-03-20T03:07:43;9.98;;;3.10;;
27612;SDS011;15036;48.094;-1.690;2023-03-20T03:10:12;7.75;;;3.00;;
27612;SDS011;15036;48.094;-1.690;2023-03-20T03:12:42;8.77;;;3.25;;
27612;SDS011;15036;48.094;-1.690;2023-03-20T03:15:23;9.32;;;2.92;;
27612;SDS011;15036;48.094;-1.690;2023-03-20T03:17:53;10.35;;;3.42;;
27612;SDS011;15036;48.094;-1.690;2023-03-20T03:20:29;9.45;;;3.13;;
27612;SDS011;15036;48.094;-1.690;2023-03-20T03:22:57;8.95;;;3.20;;
27612;SDS011;15036;48.094;-1.690;2023-03-20T03:25:24;10.52;;;3.15;;
27612;SDS011;15036;48.094;-1.690;2023-03-20T03:28:35;8.75;;;2.95;;
27612;SDS011;15036;48.094;-1.690;2023-03-20T03:30:51;10.38;;;3.15;;
27612;SDS011;15036;48.094;-1.690;2023-03-20T03:33:18;9.77;;;3.33;;
27612;SDS011;15036;48.094;-1.690;2023-03-20T03:35:47;9.63;;;3.50;;
27612;SDS011;15036;48.094;-1.690;2023-03-20T03:41:01;8.35;;;3.05;;
27612;SDS011;15036;48.094;-1.690;2023-03-20T03:43:51;8.77;;;3.10;;
27612;SDS011;15036;48.094;-1.690;2023-03-20T03:49:07;9.15;;;3.10;;
27612;SDS011;15036;48.094;-1.690;2023-03-20T03:51:34;7.57;;;3.20;;
27612;SDS011;15036;48.094;-1.690;2023-03-20T03:54:06;9.05;;;3.20;;
27612;SDS011;15036;48.094;-1.690;2023-03-20T03:56:36;9.65;;;3.67;;
27612;SDS011;15036;48.094;-1.690;2023-03-20T03:59:07;9.60;;;3.30;;
27612;SDS011;15036;48.094;-1.690;2023-03-20T04:01:37;10.55;;;3.40;;
27612;SDS011;15036;48.094;-1.690;2023-03-20T04:04:08;11.60;;;3.50;;
27612;SDS011;15036;48.094;-1.690;2023-03-20T04:06:36;10.05;;;3.70;;
27612;SDS011;15036;48.094;-1.690;2023-03-20T04:09:02;10.57;;;3.67;;
27612;SDS011;15036;48.094;-1.690;2023-03-20T04:11:27;10.90;;;4.07;;
27612;SDS011;15036;48.094;-1.690;2023-03-20T04:13:53;13.33;;;4.30;;
27612;SDS011;15036;48.094;-1.690;2023-03-20T04:16:19;13.20;;;4.20;;
27612;SDS011;15036;48.094;-1.690;2023-03-20T04:18:46;10.93;;;4.00;;
27612;SDS011;15036;48.094;-1.690;2023-03-20T04:21:11;11.90;;;3.93;;
27612;SDS011;15036;48.094;-1.690;2023-03-20T04:23:37;11.33;;;4.30;;
27612;SDS011;15036;48.094;-1.690;2023-03-20T04:26:02;11.50;;;4.17;;
27612;SDS011;15036;48.094;-1.690;2023-03-20T04:28:28;11.13;;;4.13;;
27612;SDS011;15036;48.094;-1.690;2023-03-20T04:30:54;9.37;;;4.07;;
27612;SDS011;15036;48.094;-1.690;2023-03-20T04:33:21;12.43;;;4.30;;
27612;SDS011;15036;48.094;-1.690;2023-03-20T04:35:47;12.60;;;4.22;;
27612;SDS011;15036;48.094;-1.690;2023-03-20T04:38:12;12.57;;;4.27;;
27612;SDS011;15036;48.094;-1.690;2023-03-20T04:40:38;12.48;;;4.30;;
27612;SDS011;15036;48.094;-1.690;2023-03-20T04:43:03;12.03;;;4.23;;
27612;SDS011;15036;48.094;-1.690;2023-03-20T04:45:29;10.25;;;4.43;;
27612;SDS011;15036;48.094;-1.690;2023-03-20T04:47:55;12.00;;;4.47;;
27612;SDS011;15036;48.094;-1.690;2023-03-20T04:50:20;13.73;;;4.43;;
27612;SDS011;15036;48.094;-1.690;2023-03-20T04:52:46;12.87;;;4.37;;
27612;SDS011;15036;48.094;-1.690;2023-03-20T04:55:11;13.50;;;4.40;;
27612;SDS011;15036;48.094;-1.690;2023-03-20T04:57:36;12.00;;;4.20;;
27612;SDS011;15036;48.094;-1.690;2023-03-20T05:00:02;10.80;;;4.20;;
27612;SDS011;15036;48.094;-1.690;2023-03-20T05:02:28;12.10;;;4.30;;
27612;SDS011;15036;48.094;-1.690;2023-03-20T05:04:54;13.55;;;4.65;;
27612;SDS011;15036;48.094;-1.690;2023-03-20T05:07:19;14.30;;;4.47;;
27612;SDS011;15036;48.094;-1.690;2023-03-20T05:09:46;10.70;;;4.22;;
27612;SDS011;15036;48.094;-1.690;2023-03-20T05:12:12;12.73;;;4.47;;
27612;SDS011;15036;48.094;-1.690;2023-03-20T05:14:38;11.45;;;4.07;;
27612;SDS011;15036;48.094;-1.690;2023-03-20T05:17:03;14.90;;;4.77;;
27612;SDS011;15036;48.094;-1.690;2023-03-20T05:19:28;12.23;;;4.23;;
27612;SDS011;15036;48.094;-1.690;2023-03-20T05:21:54;12.40;;;4.20;;
27612;SDS011;15036;48.094;-1.690;2023-03-20T05:24:19;10.87;;;4.50;;
27612;SDS011;15036;48.094;-1.690;2023-03-20T05:26:45;11.80;;;4.40;;
27612;SDS011;15036;48.094;-1.690;2023-03-20T05:29:11;12.77;;;4.67;;
27612;SDS011;15036;48.094;-1.690;2023-03-20T05:31:36;12.60;;;4.87;;
27612;SDS011;15036;48.094;-1.690;2023-03-20T05:34:02;14.00;;;4.60;;
27612;SDS011;15036;48.094;-1.690;2023-03-20T05:36:27;13.77;;;4.50;;
27612;SDS011;15036;48.094;-1.690;2023-03-20T05:38:52;12.97;;;5.00;;
27612;SDS011;15036;48.094;-1.690;2023-03-20T05:41:18;11.70;;;4.80;;
27612;SDS011;15036;48.094;-1.690;2023-03-20T05:43:43;13.83;;;4.90;;
27612;SDS011;15036;48.094;-1.690;2023-03-20T05:46:09;12.00;;;4.47;;
27612;SDS011;15036;48.094;-1.690;2023-03-20T05:48:34;12.13;;;4.60;;
27612;SDS011;15036;48.094;-1.690;2023-03-20T05:51:01;12.97;;;4.93;;
27612;SDS011;15036;48.094;-1.690;2023-03-20T05:53:26;13.75;;;5.22;;
27612;SDS011;15036;48.094;-1.690;2023-03-20T05:55:52;15.38;;;5.22;;
27612;SDS011;15036;48.094;-1.690;2023-03-20T05:58:17;12.17;;;4.80;;
27612;SDS011;15036;48.094;-1.690;2023-03-20T06:00:42;12.07;;;5.10;;
27612;SDS011;15036;48.094;-1.690;2023-03-20T06:03:08;13.80;;;5.20;;
27612;SDS011;15036;48.094;-1.690;2023-03-20T06:05:33;13.10;;;5.13;;
27612;SDS011;15036;48.094;-1.690;2023-03-20T06:08:00;14.35;;;5.13;;
27612;SDS011;15036;48.094;-1.690;2023-03-20T06:10:26;13.10;;;5.22;;
27612;SDS011;15036;48.094;-1.690;2023-03-20T06:12:54;12.98;;;5.15;;
27612;SDS011;15036;48.094;-1.690;2023-03-20T06:15:20;14.70;;;5.40;;
27612;SDS011;15036;48.094;-1.690;2023-03-20T06:17:45;13.68;;;5.20;;
27612;SDS011;15036;48.094;-1.690;2023-03-20T06:20:11;14.57;;;5.00;;
27612;SDS011;15036;48.094;-1.690;2023-03-20T06:22:38;14.05;;;5.28;;
27612;SDS011;15036;48.094;-1.690;2023-03-20T06:25:04;13.90;;;4.88;;
27612;SDS011;15036;48.094;-1.690;2023-03-20T06:27:30;13.05;;;4.82;;
27612;SDS011;15036;48.094;-1.690;2023-03-20T06:29:56;13.40;;;5.10;;
27612;SDS011;15036;48.094;-1.690;2023-03-20T06:32:21;12.00;;;5.00;;
27612;SDS011;15036;48.094;-1.690;2023-03-20T06:34:47;14.63;;;5.10;;
27612;SDS011;15036;48.094;-1.690;2023-03-20T06:37:12;14.10;;;5.00;;
27612;SDS011;15036;48.094;-1.690;2023-03-20T06:39:38;14.93;;;5.60;;
27612;SDS011;15036;48.094;-1.690;2023-03-20T06:42:03;11.87;;;5.10;;
27612;SDS011;15036;48.094;-1.690;2023-03-20T06:44:29;13.13;;;5.03;;
27612;SDS011;15036;48.094;-1.690;2023-03-20T06:46:54;12.63;;;4.93;;
27612;SDS011;15036;48.094;-1.690;2023-03-20T06:49:20;13.95;;;5.20;;
27612;SDS011;15036;48.094;-1.690;2023-03-20T06:51:45;14.60;;;5.25;;
27612;SDS011;15036;48.094;-1.690;2023-03-20T06:54:11;15.88;;;5.10;;
27612;SDS011;15036;48.094;-1.690;2023-03-20T06:56:37;14.33;;;5.43;;
27612;SDS011;15036;48.094;-1.690;2023-03-20T06:59:02;17.07;;;5.77;;
27612;SDS011;15036;48.094;-1.690;2023-03-20T07:01:28;14.07;;;5.63;;
27612;SDS011;15036;48.094;-1.690;2023-03-20T07:03:53;14.43;;;5.40;;
27612;SDS011;15036;48.094;-1.690;2023-03-20T07:06:18;15.17;;;5.80;;
27612;SDS011;15036;48.094;-1.690;2023-03-20T07:08:44;16.67;;;6.07;;
27612;SDS011;15036;48.094;-1.690;2023-03-20T07:11:10;13.73;;;5.40;;
27612;SDS011;15036;48.094;-1.690;2023-03-20T07:13:35;14.87;;;5.47;;
27612;SDS011;15036;48.094;-1.690;2023-03-20T07:16:02;14.98;;;5.57;;
27612;SDS011;15036;48.094;-1.690;2023-03-20T07:18:28;13.32;;;5.53;;
27612;SDS011;15036;48.094;-1.690;2023-03-20T07:20:53;15.10;;;5.67;;
27612;SDS011;15036;48.094;-1.690;2023-03-20T07:23:23;17.35;;;5.43;;
27612;SDS011;15036;48.094;-1.690;2023-03-20T07:25:48;18.30;;;5.37;;
27612;SDS011;15036;48.094;-1.690;2023-03-20T07:28:14;15.93;;;5.43;;
27612;SDS011;15036;48.094;-1.690;2023-03-20T07:30:39;15.67;;;5.40;;
27612;SDS011;15036;48.094;-1.690;2023-03-20T07:33:06;14.00;;;5.45;;
27612;SDS011;15036;48.094;-1.690;2023-03-20T07:35:31;13.70;;;5.00;;
27612;SDS011;15036;48.094;-1.690;2023-03-20T07:37:57;16.17;;;5.23;;
27612;SDS011;15036;48.094;-1.690;2023-03-20T07:40:23;13.27;;;5.00;;
27612;SDS011;15036;48.094;-1.690;2023-03-20T07:42:50;13.70;;;5.18;;
27612;SDS011;15036;48.094;-1.690;2023-03-20T07:45:16;18.30;;;5.40;;
27612;SDS011;15036;48.094;-1.690;2023-03-20T07:47:42;17.52;;;5.75;;
27612;SDS011;15036;48.094;-1.690;2023-03-20T07:50:10;14.82;;;5.10;;
27612;SDS011;15036;48.094;-1.690;2023-03-20T07:52:35;14.60;;;5.27;;
27612;SDS011;15036;48.094;-1.690;2023-03-20T07:55:01;15.87;;;5.60;;
27612;SDS011;15036;48.094;-1.690;2023-03-20T07:57:26;16.30;;;5.23;;
27612;SDS011;15036;48.094;-1.690;2023-03-20T07:59:52;15.45;;;5.10;;
27612;SDS011;15036;48.094;-1.690;2023-03-20T08:02:17;18.10;;;4.75;;
27612;SDS011;15036;48.094;-1.690;2023-03-20T08:04:43;18.65;;;4.97;;
27612;SDS011;15036;48.094;-1.690;2023-03-20T08:07:09;13.48;;;4.38;;
27612;SDS011;15036;48.094;-1.690;2023-03-20T08:09:35;17.55;;;5.40;;
27612;SDS011;15036;48.094;-1.690;2023-03-20T08:12:00;18.30;;;5.33;;
27612;SDS011;15036;48.094;-1.690;2023-03-20T08:14:27;17.45;;;4.78;;
27612;SDS011;15036;48.094;-1.690;2023-03-20T08:16:52;19.27;;;5.47;;
27612;SDS011;15036;48.094;-1.690;2023-03-20T08:19:18;18.17;;;5.20;;
27612;SDS011;15036;48.094;-1.690;2023-03-20T08:21:45;17.52;;;5.03;;
27612;SDS011;15036;48.094;-1.690;2023-03-20T08:24:10;18.87;;;4.80;;
27612;SDS011;15036;48.094;-1.690;2023-03-20T08:26:36;15.03;;;5.00;;
27612;SDS011;15036;48.094;-1.690;2023-03-20T08:29:01;17.67;;;4.90;;
27612;SDS011;15036;48.094;-1.690;2023-03-20T08:31:27;18.87;;;5.07;;
27612;SDS011;15036;48.094;-1.690;2023-03-20T08:33:52;19.73;;;5.00;;
27612;SDS011;15036;48.094;-1.690;2023-03-20T08:36:19;16.67;;;4.45;;
27612;SDS011;15036;48.094;-1.690;2023-03-20T08:38:46;17.27;;;4.70;;
27612;SDS011;15036;48.094;-1.690;2023-03-20T08:41:12;19.85;;;4.90;;
27612;SDS011;15036;48.094;-1.690;2023-03-20T08:43:38;19.05;;;4.80;;
27612;SDS011;15036;48.094;-1.690;2023-03-20T08:46:04;15.13;;;4.80;;
27612;SDS011;15036;48.094;-1.690;2023-03-20T08:48:30;17.48;;;4.60;;
27612;SDS011;15036;48.094;-1.690;2023-03-20T08:50:55;18.20;;;4.40;;
27612;SDS011;15036;48.094;-1.690;2023-03-20T08:53:21;17.93;;;4.73;;
27612;SDS011;15036;48.094;-1.690;2023-03-20T08:55:47;17.15;;;4.88;;
27612;SDS011;15036;48.094;-1.690;2023-03-20T08:58:16;16.63;;;4.40;;
27612;SDS011;15036;48.094;-1.690;2023-03-20T09:00:42;19.23;;;4.93;;
27612;SDS011;15036;48.094;-1.690;2023-03-20T09:03:14;15.60;;;4.38;;
27612;SDS011;15036;48.094;-1.690;2023-03-20T09:05:43;15.30;;;4.60;;
27612;SDS011;15036;48.094;-1.690;2023-03-20T09:08:10;15.20;;;4.50;;
27612;SDS011;15036;48.094;-1.690;2023-03-20T09:10:36;13.98;;;4.47;;
27612;SDS011;15036;48.094;-1.690;2023-03-20T09:13:01;20.60;;;4.95;;
27612;SDS011;15036;48.094;-1.690;2023-03-20T09:15:27;15.13;;;4.40;;
27612;SDS011;15036;48.094;-1.690;2023-03-20T09:17:53;14.93;;;4.37;;
27612;SDS011;15036;48.094;-1.690;2023-03-20T09:20:18;18.25;;;4.35;;
27612;SDS011;15036;48.094;-1.690;2023-03-20T09:22:44;13.50;;;4.13;;
27612;SDS011;15036;48.094;-1.690;2023-03-20T09:25:09;14.82;;;4.32;;
27612;SDS011;15036;48.094;-1.690;2023-03-20T09:27:36;12.87;;;3.90;;
27612;SDS011;15036;48.094;-1.690;2023-03-20T09:30:02;16.05;;;4.40;;
27612;SDS011;15036;48.094;-1.690;2023-03-20T09:32:29;15.00;;;3.83;;
27612;SDS011;15036;48.094;-1.690;2023-03-20T09:34:55;15.27;;;3.63;;
27612;SDS011;15036;48.094;-1.690;2023-03-20T09:37:20;13.27;;;3.47;;
27612;SDS011;15036;48.094;-1.690;2023-03-20T09:39:45;14.97;;;3.47;;
27612;SDS011;15036;48.094;-1.690;2023-03-20T09:42:25;13.17;;;3.97;;
27612;SDS011;15036;48.094;-1.690;2023-03-20T09:45:06;15.73;;;3.97;;
27612;SDS011;15036;48.094;-1.690;2023-03-20T09:47:53;17.08;;;4.18;;
27612;SDS011;15036;48.094;-1.690;2023-03-20T09:53:12;15.68;;;4.07;;
27612;SDS011;15036;48.094;-1.690;2023-03-20T09:55:44;15.85;;;3.95;;
27612;SDS011;15036;48.094;-1.690;2023-03-20T10:00:47;16.35;;;3.60;;
27612;SDS011;15036;48.094;-1.690;2023-03-20T10:03:16;14.10;;;3.47;;
27612;SDS011;15036;48.094;-1.690;2023-03-20T10:06:05;12.70;;;3.40;;
27612;SDS011;15036;48.094;-1.690;2023-03-20T10:08:37;11.57;;;3.22;;
27612;SDS011;15036;48.094;-1.690;2023-03-20T10:19:44;15.93;;;3.45;;
27612;SDS011;15036;48.094;-1.690;2023-03-20T10:27:45;11.32;;;3.25;;
27612;SDS011;15036;48.094;-1.690;2023-03-20T10:30:22;16.08;;;3.40;;
27612;SDS011;15036;48.094;-1.690;2023-03-20T10:32:59;11.60;;;3.10;;
27612;SDS011;15036;48.094;-1.690;2023-03-20T10:40:33;13.48;;;3.33;;
27612;SDS011;15036;48.094;-1.690;2023-03-20T10:43:03;13.40;;;3.25;;
27612;SDS011;15036;48.094;-1.690;2023-03-20T10:48:20;11.55;;;2.95;;
27612;SDS011;15036;48.094;-1.690;2023-03-20T10:50:48;11.95;;;3.35;;
27612;SDS011;15036;48.094;-1.690;2023-03-20T10:53:36;10.85;;;3.25;;
27612;SDS011;15036;48.094;-1.690;2023-03-20T10:56:17;10.38;;;2.95;;
27612;SDS011;15036;48.094;-1.690;2023-03-20T10:58:58;12.53;;;3.23;;
27612;SDS011;15036;48.094;-1.690;2023-03-20T11:01:30;9.80;;;3.05;;
27612;SDS011;15036;48.094;-1.690;2023-03-20T11:03:56;11.73;;;3.47;;
27612;SDS011;15036;48.094;-1.690;2023-03-20T11:06:23;10.55;;;3.40;;
27612;SDS011;15036;48.094;-1.690;2023-03-20T11:08:52;10.73;;;3.10;;
27612;SDS011;15036;48.094;-1.690;2023-03-20T11:11:25;13.27;;;3.90;;
27612;SDS011;15036;48.094;-1.690;2023-03-20T11:13:54;10.85;;;3.28;;
27612;SDS011;15036;48.094;-1.690;2023-03-20T11:18:48;10.80;;;3.00;;
27612;SDS011;15036;48.094;-1.690;2023-03-20T11:21:20;11.90;;;3.00;;
27612;SDS011;15036;48.094;-1.690;2023-03-20T11:23:50;10.13;;;3.20;;
27612;SDS011;15036;48.094;-1.690;2023-03-20T11:26:18;9.95;;;3.20;;
27612;SDS011;15036;48.094;-1.690;2023-03-20T11:28:52;11.57;;;3.08;;
27612;SDS011;15036;48.094;-1.690;2023-03-20T11:31:33;12.23;;;3.50;;
27612;SDS011;15036;48.094;-1.690;2023-03-20T11:34:14;10.02;;;3.10;;
27612;SDS011;15036;48.094;-1.690;2023-03-20T11:36:55;10.35;;;3.30;;
27612;SDS011;15036;48.094;-1.690;2023-03-20T11:39:23;9.35;;;2.90;;
27612;SDS011;15036;48.094;-1.690;2023-03-20T11:41:57;10.68;;;3.45;;
27612;SDS011;15036;48.094;-1.690;2023-03-20T11:49:28;11.07;;;3.23;;
27612;SDS011;15036;48.094;-1.690;2023-03-20T11:52:02;10.27;;;3.00;;
27612;SDS011;15036;48.094;-1.690;2023-03-20T11:54:36;12.85;;;3.50;;
27612;SDS011;15036;48.094;-1.690;2023-03-20T11:57:12;11.00;;;3.38;;
27612;SDS011;15036;48.094;-1.690;2023-03-20T11:59:55;12.38;;;3.10;;
27612;SDS011;15036;48.094;-1.690;2023-03-20T12:02:21;9.02;;;2.58;;
27612;SDS011;15036;48.094;-1.690;2023-03-20T12:04:49;11.55;;;3.10;;
27612;SDS011;15036;48.094;-1.690;2023-03-20T12:07:21;10.05;;;2.83;;
27612;SDS011;15036;48.094;-1.690;2023-03-20T12:09:51;8.53;;;2.40;;
27612;SDS011;15036;48.094;-1.690;2023-03-20T12:15:12;10.88;;;2.90;;
27612;SDS011;15036;48.094;-1.690;2023-03-20T12:22:52;8.90;;;2.70;;
27612;SDS011;15036;48.094;-1.690;2023-03-20T12:25:25;8.60;;;2.85;;
27612;SDS011;15036;48.094;-1.690;2023-03-20T12:28:04;9.48;;;2.78;;
27612;SDS011;15036;48.094;-1.690;2023-03-20T12:33:36;9.73;;;2.80;;
27612;SDS011;15036;48.094;-1.690;2023-03-20T12:36:12;11.80;;;3.17;;
27612;SDS011;15036;48.094;-1.690;2023-03-20T12:38:41;10.27;;;2.72;;
27612;SDS011;15036;48.094;-1.690;2023-03-20T12:41:15;10.55;;;2.88;;
27612;SDS011;15036;48.094;-1.690;2023-03-20T12:44:19;9.18;;;2.80;;
27612;SDS011;15036;48.094;-1.690;2023-03-20T12:54:59;9.30;;;2.90;;
27612;SDS011;15036;48.094;-1.690;2023-03-20T12:57:50;9.57;;;2.97;;
27612;SDS011;15036;48.094;-1.690;2023-03-20T13:06:13;8.27;;;2.65;;
27612;SDS011;15036;48.094;-1.690;2023-03-20T13:08:48;8.57;;;2.47;;
27612;SDS011;15036;48.094;-1.690;2023-03-20T13:15:02;11.90;;;2.80;;
27612;SDS011;15036;48.094;-1.690;2023-03-20T13:20:31;8.33;;;2.47;;
27612;SDS011;15036;48.094;-1.690;2023-03-20T13:23:08;10.25;;;2.67;;
27612;SDS011;15036;48.094;-1.690;2023-03-20T13:25:47;9.55;;;3.08;;
27612;SDS011;15036;48.094;-1.690;2023-03-20T13:30:59;10.07;;;2.80;;
27612;SDS011;15036;48.094;-1.690;2023-03-20T13:36:10;9.50;;;2.65;;
27612;SDS011;15036;48.094;-1.690;2023-03-20T13:38:41;11.73;;;3.03;;
27612;SDS011;15036;48.094;-1.690;2023-03-20T13:41:13;10.93;;;2.80;;
27612;SDS011;15036;48.094;-1.690;2023-03-20T13:43:41;10.85;;;2.65;;
27612;SDS011;15036;48.094;-1.690;2023-03-20T13:46:22;9.45;;;2.72;;
27612;SDS011;15036;48.094;-1.690;2023-03-20T13:48:50;10.40;;;2.60;;
27612;SDS011;15036;48.094;-1.690;2023-03-20T13:51:32;9.18;;;2.90;;
27612;SDS011;15036;48.094;-1.690;2023-03-20T14:00:17;10.77;;;2.88;;
27612;SDS011;15036;48.094;-1.690;2023-03-20T14:02:50;10.23;;;2.75;;
27612;SDS011;15036;48.094;-1.690;2023-03-20T14:05:38;11.95;;;2.90;;
27612;SDS011;15036;48.094;-1.690;2023-03-20T14:11:03;7.95;;;2.35;;
27612;SDS011;15036;48.094;-1.690;2023-03-20T14:13:38;9.15;;;2.70;;
27612;SDS011;15036;48.094;-1.690;2023-03-20T14:16:09;9.40;;;2.72;;
27612;SDS011;15036;48.094;-1.690;2023-03-20T14:18:38;11.65;;;2.80;;
27612;SDS011;15036;48.094;-1.690;2023-03-20T14:21:13;13.18;;;3.40;;
27612;SDS011;15036;48.094;-1.690;2023-03-20T14:23:43;11.05;;;2.92;;
27612;SDS011;15036;48.094;-1.690;2023-03-20T14:26:18;10.45;;;2.70;;
27612;SDS011;15036;48.094;-1.690;2023-03-20T14:31:33;8.82;;;2.72;;
27612;SDS011;15036;48.094;-1.690;2023-03-20T14:53:21;8.98;;;2.38;;
27612;SDS011;15036;48.094;-1.690;2023-03-20T15:03:38;11.02;;;2.70;;
27612;SDS011;15036;48.094;-1.690;2023-03-20T15:06:05;8.97;;;2.37;;
27612;SDS011;15036;48.094;-1.690;2023-03-20T15:08:34;10.18;;;2.50;;
27612;SDS011;15036;48.094;-1.690;2023-03-20T15:11:06;9.07;;;2.63;;
27612;SDS011;15036;48.094;-1.690;2023-03-20T15:13:34;8.35;;;2.58;;
27612;SDS011;15036;48.094;-1.690;2023-03-20T15:18:35;10.18;;;2.80;;
27612;SDS011;15036;48.094;-1.690;2023-03-20T15:21:08;10.25;;;3.00;;
27612;SDS011;15036;48.094;-1.690;2023-03-20T15:23:40;9.95;;;2.90;;
27612;SDS011;15036;48.094;-1.690;2023-03-20T15:26:06;9.05;;;2.53;;
27612;SDS011;15036;48.094;-1.690;2023-03-20T15:28:32;12.37;;;2.80;;
27612;SDS011;15036;48.094;-1.690;2023-03-20T15:31:01;8.98;;;2.60;;
27612;SDS011;15036;48.094;-1.690;2023-03-20T15:33:28;7.95;;;2.65;;
27612;SDS011;15036;48.094;-1.690;2023-03-20T15:35:57;8.60;;;2.53;;
27612;SDS011;15036;48.094;-1.690;2023-03-20T15:38:25;8.30;;;2.50;;
27612;SDS011;15036;48.094;-1.690;2023-03-20T15:40:56;8.40;;;2.65;;
27612;SDS011;15036;48.094;-1.690;2023-03-20T15:43:24;6.43;;;2.55;;
27612;SDS011;15036;48.094;-1.690;2023-03-20T15:45:50;7.95;;;2.55;;
27612;SDS011;15036;48.094;-1.690;2023-03-20T15:48:21;10.07;;;2.63;;
27612;SDS011;15036;48.094;-1.690;2023-03-20T15:50:49;8.07;;;2.80;;
27612;SDS011;15036;48.094;-1.690;2023-03-20T15:53:30;9.20;;;2.60;;
27612;SDS011;15036;48.094;-1.690;2023-03-20T15:56:05;10.25;;;2.50;;
27612;SDS011;15036;48.094;-1.690;2023-03-20T15:58:33;9.55;;;2.90;;
27612;SDS011;15036;48.094;-1.690;2023-03-20T16:01:00;8.93;;;2.58;;
27612;SDS011;15036;48.094;-1.690;2023-03-20T16:03:27;8.57;;;2.40;;
27612;SDS011;15036;48.094;-1.690;2023-03-20T16:05:54;8.38;;;2.67;;
27612;SDS011;15036;48.094;-1.690;2023-03-20T16:11:00;10.90;;;2.90;;
27612;SDS011;15036;48.094;-1.690;2023-03-20T16:13:30;8.23;;;2.53;;
27612;SDS011;15036;48.094;-1.690;2023-03-20T16:16:02;8.43;;;2.45;;
27612;SDS011;15036;48.094;-1.690;2023-03-20T16:18:29;6.93;;;2.25;;
27612;SDS011;15036;48.094;-1.690;2023-03-20T16:21:01;8.50;;;2.40;;
27612;SDS011;15036;48.094;-1.690;2023-03-20T16:25:58;9.30;;;2.63;;
27612;SDS011;15036;48.094;-1.690;2023-03-20T16:28:25;6.88;;;2.30;;
27612;SDS011;15036;48.094;-1.690;2023-03-20T16:30:52;6.95;;;2.00;;
27612;SDS011;15036;48.094;-1.690;2023-03-20T16:33:20;6.53;;;2.10;;
27612;SDS011;15036;48.094;-1.690;2023-03-20T16:35:47;6.28;;;2.10;;
27612;SDS011;15036;48.094;-1.690;2023-03-20T16:38:34;6.55;;;2.15;;
27612;SDS011;15036;48.094;-1.690;2023-03-20T16:41:14;6.03;;;1.80;;
27612;SDS011;15036;48.094;-1.690;2023-03-20T16:43:49;6.70;;;2.30;;
27612;SDS011;15036;48.094;-1.690;2023-03-20T16:46:21;8.23;;;2.70;;
27612;SDS011;15036;48.094;-1.690;2023-03-20T16:49:11;6.75;;;2.10;;
27612;SDS011;15036;48.094;-1.690;2023-03-20T16:52:02;8.85;;;2.35;;
27612;SDS011;15036;48.094;-1.690;2023-03-20T16:54:34;8.43;;;2.30;;
27612;SDS011;15036;48.094;-1.690;2023-03-20T16:57:00;7.63;;;2.50;;
27612;SDS011;15036;48.094;-1.690;2023-03-20T16:59:28;8.63;;;2.17;;
27612;SDS011;15036;48.094;-1.690;2023-03-20T17:01:54;8.50;;;2.00;;
27612;SDS011;15036;48.094;-1.690;2023-03-20T17:04:27;7.53;;;2.20;;
27612;SDS011;15036;48.094;-1.690;2023-03-20T17:06:58;7.03;;;1.88;;
27612;SDS011;15036;48.094;-1.690;2023-03-20T17:09:27;8.93;;;2.40;;
27612;SDS011;15036;48.094;-1.690;2023-03-20T17:12:04;6.60;;;2.08;;
27612;SDS011;15036;48.094;-1.690;2023-03-20T17:14:29;10.02;;;2.47;;